Steve C — WDI2267 — position and weather

sailwx.info

Track history (hours):
 
Tides and Currents Weather Stations Pressure Air Temp Water Temp Dewpoint Dewpoint Depression Visibility Wind Speed Wind Dir Waves Ship Positions

Steve C

Owner: Rankin Fish, Inc., Astoria, OR. More information available from US FCC via Universal Licensing System and Coast Guard Vessel Documentation Center.

Last reported at 2018-Feb-17 00:53 UTC. Time now 2018-Feb-17 19:20 UTC.
Position N 48°23' W 124°46'.

Length 24 m.

Type: Fishing. MMSI: 367676420.

Date/timePositionNaut miles runAvg speedWind from/ knotsBaromVisibWave heightAir tempDewpointWater temp
2018-Feb-17 00:53N 48°23' W 124°46'3 9.2
2018-Feb-17 00:30N 48°24' W 124°41'4 7.8
2018-Feb-17 00:00N 48°23' W 124°36'1 1.5
2018-Feb-16 23:29N 48°22' W 124°37'0 0.0
2018-Feb-16 22:58N 48°22' W 124°37'0 0.0
2018-Feb-16 22:28N 48°22' W 124°37'0 0.0
2018-Feb-16 21:58N 48°22' W 124°37'0 0.0
2018-Feb-16 21:28N 48°22' W 124°37'0 0.0
2018-Feb-16 20:58N 48°22' W 124°37'2 4.7
2018-Feb-16 20:30N 48°23' W 124°34'5 9.1
2018-Feb-16 20:00N 48°21' W 124°27'63 8.7
2018-Feb-16 12:41N 48°23' W 122°52'2 7.8
2018-Feb-16 12:28N 48°24' W 122°50'4 6.6
2018-Feb-16 11:50N 48°27' W 122°46'2 5.7
2018-Feb-16 11:28N 48°29' W 122°45'3 5.4
2018-Feb-16 10:59N 48°31' W 122°43'3 5.6
2018-Feb-16 10:28N 48°33' W 122°40'3 5.8
2018-Feb-16 09:55N 48°36' W 122°39'3 7.9
2018-Feb-16 09:30N 48°38' W 122°35'4 8.0
2018-Feb-16 09:00N 48°42' W 122°33'4 5.5
2018-Feb-16 08:18N 48°45' W 122°30'0 0.0
2018-Feb-16 06:42N 48°45' W 122°30'0 0.0
2018-Feb-16 06:24N 48°45' W 122°30'0 0.0
2018-Feb-16 05:54N 48°45' W 122°30'0 0.0
2018-Feb-16 05:30N 48°45' W 122°30'0 0.0
2018-Feb-16 04:42N 48°45' W 122°30'0 0.0
2018-Feb-16 04:30N 48°45' W 122°30'0 0.0
2018-Feb-16 03:12N 48°45' W 122°30'0 0.0
2018-Feb-16 03:00N 48°45' W 122°30'0 0.0
2018-Feb-16 02:30N 48°45' W 122°30'0 0.0
2018-Feb-16 02:00N 48°45' W 122°30'0 0.0
2018-Feb-16 01:24N 48°45' W 122°30'0 0.0
2018-Feb-16 00:54N 48°45' W 122°30'0 0.0
2018-Feb-16 00:24N 48°45' W 122°30'0 0.0
2018-Feb-16 00:00N 48°45' W 122°30'0 0.0
2018-Feb-15 23:18N 48°45' W 122°30'0 0.0
2018-Feb-15 22:54N 48°45' W 122°30'0 0.0
2018-Feb-15 22:30N 48°45' W 122°30'0 0.0
2018-Feb-15 22:00N 48°45' W 122°30'0 0.0
2018-Feb-15 21:12N 48°45' W 122°30'0 0.0
2018-Feb-15 21:00N 48°45' W 122°30'0 0.0
2018-Feb-15 20:18N 48°45' W 122°30'0 0.0
2018-Feb-15 19:12N 48°45' W 122°30'0 0.0
2018-Feb-15 19:00N 48°45' W 122°30'0 0.0
2018-Feb-15 18:30N 48°45' W 122°30'0 0.0
2018-Feb-15 18:00N 48°45' W 122°30'0 0.0
2018-Feb-15 17:30N 48°45' W 122°30'0 0.0
2018-Feb-15 17:00N 48°45' W 122°30'0 0.0
2018-Feb-15 16:30N 48°45' W 122°30'0 0.0
2018-Feb-15 15:54N 48°45' W 122°30'0 0.0
2018-Feb-15 15:30N 48°45' W 122°30'0 0.0
2018-Feb-15 15:00N 48°45' W 122°30'0 0.0
2018-Feb-15 14:28N 48°45' W 122°30'0 0.0
2018-Feb-15 13:40N 48°45' W 122°30'0 0.0
2018-Feb-15 13:28N 48°45' W 122°30'0 0.0
2018-Feb-15 12:58N 48°45' W 122°30'0 0.0
2018-Feb-15 12:28N 48°45' W 122°30'0 0.0
2018-Feb-15 11:58N 48°45' W 122°30'0 0.0
2018-Feb-15 11:28N 48°45' W 122°30'0 0.0
2018-Feb-15 10:58N 48°45' W 122°30'0 0.0
2018-Feb-15 10:28N 48°45' W 122°30'0 0.0
2018-Feb-15 09:58N 48°45' W 122°30'0 0.0
2018-Feb-15 09:28N 48°45' W 122°30'0 0.0
2018-Feb-15 08:58N 48°45' W 122°30'0 0.0
2018-Feb-15 08:22N 48°45' W 122°30'0 0.0
2018-Feb-15 07:52N 48°45' W 122°30'0 0.0
2018-Feb-15 07:28N 48°45' W 122°30'0 0.0
2018-Feb-15 06:55N 48°45' W 122°30'0 0.0
2018-Feb-15 06:25N 48°45' W 122°30'0 0.0
2018-Feb-15 05:55N 48°45' W 122°30'0 0.0
2018-Feb-15 05:25N 48°45' W 122°30'0 0.0
2018-Feb-15 04:49N 48°45' W 122°30'0 0.0
2018-Feb-15 03:43N 48°45' W 122°30'0 0.0
2018-Feb-15 03:25N 48°45' W 122°30'0 0.0
2018-Feb-15 02:43N 48°45' W 122°30'0 0.0
2018-Feb-15 02:25N 48°45' W 122°30'0 0.0
2018-Feb-15 01:55N 48°45' W 122°30'0 0.0
2018-Feb-15 01:13N 48°45' W 122°30'0 0.0
2018-Feb-15 00:55N 48°45' W 122°30'0 0.0
2018-Feb-15 00:25N 48°45' W 122°30'0 0.0
2018-Feb-14 23:55N 48°45' W 122°30'0 0.0
2018-Feb-14 23:28N 48°45' W 122°30'0 0.0
2018-Feb-14 22:55N 48°45' W 122°30'0 0.0
2018-Feb-14 22:28N 48°45' W 122°30'0 0.0
2018-Feb-14 21:58N 48°45' W 122°30'0 0.0
2018-Feb-14 21:25N 48°45' W 122°30'0 0.0
2018-Feb-14 20:55N 48°45' W 122°30'0 0.0
2018-Feb-14 20:25N 48°45' W 122°30'0 0.0
2018-Feb-14 19:58N 48°45' W 122°30'0 0.0
2018-Feb-14 19:25N 48°45' W 122°30'0 0.0
2018-Feb-14 18:55N 48°45' W 122°30'0 0.0
2018-Feb-14 18:25N 48°45' W 122°30'0 0.0
2018-Feb-14 17:49N 48°45' W 122°30'0 0.0
2018-Feb-14 17:25N 48°45' W 122°30'0 0.0
2018-Feb-14 16:52N 48°45' W 122°30'0 0.0
2018-Feb-14 16:22N 48°45' W 122°30'0 0.0
2018-Feb-14 15:58N 48°45' W 122°30'0 0.0
2018-Feb-14 15:28N 48°45' W 122°30'0 0.0
2018-Feb-14 14:55N 48°45' W 122°30'0 0.0
2018-Feb-14 14:13N 48°45' W 122°30'0 0.0
2018-Feb-14 13:52N 48°45' W 122°30'0 0.0
2018-Feb-14 13:25N 48°45' W 122°30'0 0.0
2018-Feb-14 12:58N 48°45' W 122°30'0 0.0
2018-Feb-14 12:25N 48°45' W 122°30'0 0.0
2018-Feb-14 11:55N 48°45' W 122°30'0 0.0
2018-Feb-14 11:19N 48°45' W 122°30'0 0.0
2018-Feb-14 10:55N 48°45' W 122°30'0 0.0
2018-Feb-14 10:13N 48°45' W 122°30'0 0.0
2018-Feb-14 09:49N 48°45' W 122°30'0 0.0
2018-Feb-14 09:19N 48°45' W 122°30'0 0.0
2018-Feb-14 08:55N 48°45' W 122°30'0 0.0
2018-Feb-14 08:25N 48°45' W 122°30'0 0.0
2018-Feb-14 07:55N 48°45' W 122°30'0 0.0
2018-Feb-14 07:25N 48°45' W 122°30'0 0.0
2018-Feb-14 06:49N 48°45' W 122°30'0 0.0
2018-Feb-14 06:13N 48°45' W 122°30'0 0.0
2018-Feb-14 03:25N 48°45' W 122°30'0 0.0
2018-Feb-13 21:13N 48°45' W 122°30'0 0.0
2018-Feb-13 20:49N 48°45' W 122°30'0 0.0
2018-Feb-13 18:58N 48°45' W 122°30'0 0.0
2018-Feb-13 18:19N 48°45' W 122°30'0 0.0
2018-Feb-13 17:55N 48°45' W 122°30'0 0.0
2018-Feb-13 17:28N 48°45' W 122°30'0 0.0
2018-Feb-13 16:49N 48°45' W 122°30'0 0.0
2018-Feb-13 15:19N 48°45' W 122°30'0 0.0
2018-Feb-13 14:55N 48°45' W 122°30'0 0.0
2018-Feb-13 14:10N 48°45' W 122°30'0 0.0
2018-Feb-13 13:55N 48°45' W 122°30'0 0.0
2018-Feb-13 13:25N 48°45' W 122°30'0 0.0
2018-Feb-13 12:58N 48°45' W 122°30'0 0.0
2018-Feb-13 12:28N 48°45' W 122°30'0 0.0
2018-Feb-13 11:55N 48°45' W 122°30'0 0.0
2018-Feb-13 11:25N 48°45' W 122°30'0 0.0
2018-Feb-13 10:52N 48°45' W 122°30'0 0.0
2018-Feb-13 10:28N 48°45' W 122°30'0 0.0
2018-Feb-13 09:43N 48°45' W 122°30'0 0.0
2018-Feb-13 09:25N 48°45' W 122°30'0 0.0
2018-Feb-13 08:55N 48°45' W 122°30'0 0.0
2018-Feb-13 08:19N 48°45' W 122°30'0 0.0
2018-Feb-13 07:52N 48°45' W 122°30'0 0.0
2018-Feb-13 07:19N 48°45' W 122°30'0 0.0
2018-Feb-13 06:55N 48°45' W 122°30'0 0.0
2018-Feb-13 06:25N 48°45' W 122°30'0 0.0
2018-Feb-13 05:49N 48°45' W 122°30'0 0.0
2018-Feb-13 05:19N 48°45' W 122°30'0 0.0
2018-Feb-13 04:55N 48°45' W 122°30'0 0.0
2018-Feb-13 04:25N 48°45' W 122°30'0 0.0
2018-Feb-13 03:55N 48°45' W 122°30'0 0.0
2018-Feb-13 03:25N 48°45' W 122°30'0 0.0
2018-Feb-13 02:49N 48°45' W 122°30'0 0.0
2018-Feb-13 02:25N 48°45' W 122°30'0 0.0
2018-Feb-12 07:15N 48°45' W 122°30'7 6.7
2018-Feb-12 06:14N 48°39' W 122°34'2 7.1
2018-Feb-12 05:54N 48°37' W 122°37'3 7.2
2018-Feb-12 05:30N 48°35' W 122°40'3 6.9
2018-Feb-12 05:00N 48°32' W 122°41'3 6.7
2018-Feb-12 04:30N 48°29' W 122°44'3 5.8
2018-Feb-12 03:59N 48°26' W 122°45'3 6.1
2018-Feb-12 03:28N 48°24' W 122°48'58 6.8
2018-Feb-11 18:52N 48°18' W 124°16'3 7.7
2018-Feb-11 18:29N 48°19' W 124°20'4 7.6
2018-Feb-11 17:59N 48°20' W 124°25'4 7.5
2018-Feb-11 17:30N 48°22' W 124°30'4 7.5
2018-Feb-11 17:00N 48°24' W 124°35'4 7.1
2018-Feb-11 16:30N 48°24' W 124°40'4 7.7
2018-Feb-11 15:56N 48°23' W 124°46'  
2018-Feb-08 00:18N 48°22' W 124°37'0 0.6
2018-Feb-08 00:00N 48°22' W 124°37'0 0.0
2018-Feb-07 23:30N 48°22' W 124°37'0 0.0
2018-Feb-07 23:00N 48°22' W 124°37'0 0.0
2018-Feb-07 22:30N 48°22' W 124°37'0 0.0
2018-Feb-07 22:00N 48°22' W 124°37'0 0.0
2018-Feb-07 21:30N 48°22' W 124°37'83 6.9
2018-Feb-07 09:30N 48°38' W 122°34'7 8.5
2018-Feb-07 08:39N 48°45' W 122°31'0 1.3
2018-Feb-07 08:28N 48°45' W 122°30'0 0.0
2018-Feb-07 07:58N 48°45' W 122°30'0 0.0
2018-Feb-07 07:28N 48°45' W 122°30'0 0.0
2018-Feb-07 06:58N 48°45' W 122°30'0 0.0
2018-Feb-07 05:10N 48°45' W 122°30'0 0.0
2018-Feb-07 04:52N 48°45' W 122°30'0 0.0
2018-Feb-07 04:28N 48°45' W 122°30'0 0.0
2018-Feb-07 02:10N 48°45' W 122°30'0 0.0
2018-Feb-07 01:58N 48°45' W 122°30'  
Track history (hours):
 
Tides and Currents Weather Stations Pressure Air Temp Water Temp Dewpoint Dewpoint Depression Visibility Wind Speed Wind Dir Waves Ship Positions

Steve C

Owner: Rankin Fish, Inc., Astoria, OR. More information available from US FCC via Universal Licensing System and Coast Guard Vessel Documentation Center.

Last reported at 2018-Feb-17 00:53 UTC. Time now 2018-Feb-17 19:20 UTC.
Position N 48°23' W 124°46'.

Length 24 m.

Type: Fishing. MMSI: 367676420.

Date/timePositionNaut miles runAvg speedWind from/ knotsBaromVisibWave heightAir tempDewpointWater temp
2018-Feb-17 00:53N 48°23' W 124°46'3 9.2
2018-Feb-17 00:30N 48°24' W 124°41'4 7.8
2018-Feb-17 00:00N 48°23' W 124°36'1 1.5
2018-Feb-16 23:29N 48°22' W 124°37'0 0.0
2018-Feb-16 22:58N 48°22' W 124°37'0 0.0
2018-Feb-16 22:28N 48°22' W 124°37'0 0.0
2018-Feb-16 21:58N 48°22' W 124°37'0 0.0
2018-Feb-16 21:28N 48°22' W 124°37'0 0.0
2018-Feb-16 20:58N 48°22' W 124°37'2 4.7
2018-Feb-16 20:30N 48°23' W 124°34'5 9.1
2018-Feb-16 20:00N 48°21' W 124°27'63 8.7
2018-Feb-16 12:41N 48°23' W 122°52'2 7.8
2018-Feb-16 12:28N 48°24' W 122°50'4 6.6
2018-Feb-16 11:50N 48°27' W 122°46'2 5.7
2018-Feb-16 11:28N 48°29' W 122°45'3 5.4
2018-Feb-16 10:59N 48°31' W 122°43'3 5.6
2018-Feb-16 10:28N 48°33' W 122°40'3 5.8
2018-Feb-16 09:55N 48°36' W 122°39'3 7.9
2018-Feb-16 09:30N 48°38' W 122°35'4 8.0
2018-Feb-16 09:00N 48°42' W 122°33'4 5.5
2018-Feb-16 08:18N 48°45' W 122°30'0 0.0
2018-Feb-16 06:42N 48°45' W 122°30'0 0.0
2018-Feb-16 06:24N 48°45' W 122°30'0 0.0
2018-Feb-16 05:54N 48°45' W 122°30'0 0.0
2018-Feb-16 05:30N 48°45' W 122°30'0 0.0
2018-Feb-16 04:42N 48°45' W 122°30'0 0.0
2018-Feb-16 04:30N 48°45' W 122°30'0 0.0
2018-Feb-16 03:12N 48°45' W 122°30'0 0.0
2018-Feb-16 03:00N 48°45' W 122°30'0 0.0
2018-Feb-16 02:30N 48°45' W 122°30'0 0.0
2018-Feb-16 02:00N 48°45' W 122°30'0 0.0
2018-Feb-16 01:24N 48°45' W 122°30'0 0.0
2018-Feb-16 00:54N 48°45' W 122°30'0 0.0
2018-Feb-16 00:24N 48°45' W 122°30'0 0.0
2018-Feb-16 00:00N 48°45' W 122°30'0 0.0
2018-Feb-15 23:18N 48°45' W 122°30'0 0.0
2018-Feb-15 22:54N 48°45' W 122°30'0 0.0
2018-Feb-15 22:30N 48°45' W 122°30'0 0.0
2018-Feb-15 22:00N 48°45' W 122°30'0 0.0
2018-Feb-15 21:12N 48°45' W 122°30'0 0.0
2018-Feb-15 21:00N 48°45' W 122°30'0 0.0
2018-Feb-15 20:18N 48°45' W 122°30'0 0.0
2018-Feb-15 19:12N 48°45' W 122°30'0 0.0
2018-Feb-15 19:00N 48°45' W 122°30'0 0.0
2018-Feb-15 18:30N 48°45' W 122°30'0 0.0
2018-Feb-15 18:00N 48°45' W 122°30'0 0.0
2018-Feb-15 17:30N 48°45' W 122°30'0 0.0
2018-Feb-15 17:00N 48°45' W 122°30'0 0.0
2018-Feb-15 16:30N 48°45' W 122°30'0 0.0
2018-Feb-15 15:54N 48°45' W 122°30'0 0.0
2018-Feb-15 15:30N 48°45' W 122°30'0 0.0
2018-Feb-15 15:00N 48°45' W 122°30'0 0.0
2018-Feb-15 14:28N 48°45' W 122°30'0 0.0
2018-Feb-15 13:40N 48°45' W 122°30'0 0.0
2018-Feb-15 13:28N 48°45' W 122°30'0 0.0
2018-Feb-15 12:58N 48°45' W 122°30'0 0.0
2018-Feb-15 12:28N 48°45' W 122°30'0 0.0
2018-Feb-15 11:58N 48°45' W 122°30'0 0.0
2018-Feb-15 11:28N 48°45' W 122°30'0 0.0
2018-Feb-15 10:58N 48°45' W 122°30'0 0.0
2018-Feb-15 10:28N 48°45' W 122°30'0 0.0
2018-Feb-15 09:58N 48°45' W 122°30'0 0.0
2018-Feb-15 09:28N 48°45' W 122°30'0 0.0
2018-Feb-15 08:58N 48°45' W 122°30'0 0.0
2018-Feb-15 08:22N 48°45' W 122°30'0 0.0
2018-Feb-15 07:52N 48°45' W 122°30'0 0.0
2018-Feb-15 07:28N 48°45' W 122°30'0 0.0
2018-Feb-15 06:55N 48°45' W 122°30'0 0.0
2018-Feb-15 06:25N 48°45' W 122°30'0 0.0
2018-Feb-15 05:55N 48°45' W 122°30'0 0.0
2018-Feb-15 05:25N 48°45' W 122°30'0 0.0
2018-Feb-15 04:49N 48°45' W 122°30'0 0.0
2018-Feb-15 03:43N 48°45' W 122°30'0 0.0
2018-Feb-15 03:25N 48°45' W 122°30'0 0.0
2018-Feb-15 02:43N 48°45' W 122°30'0 0.0
2018-Feb-15 02:25N 48°45' W 122°30'0 0.0
2018-Feb-15 01:55N 48°45' W 122°30'0 0.0
2018-Feb-15 01:13N 48°45' W 122°30'0 0.0
2018-Feb-15 00:55N 48°45' W 122°30'0 0.0
2018-Feb-15 00:25N 48°45' W 122°30'0 0.0
2018-Feb-14 23:55N 48°45' W 122°30'0 0.0
2018-Feb-14 23:28N 48°45' W 122°30'0 0.0
2018-Feb-14 22:55N 48°45' W 122°30'0 0.0
2018-Feb-14 22:28N 48°45' W 122°30'0 0.0
2018-Feb-14 21:58N 48°45' W 122°30'0 0.0
2018-Feb-14 21:25N 48°45' W 122°30'0 0.0
2018-Feb-14 20:55N 48°45' W 122°30'0 0.0
2018-Feb-14 20:25N 48°45' W 122°30'0 0.0
2018-Feb-14 19:58N 48°45' W 122°30'0 0.0
2018-Feb-14 19:25N 48°45' W 122°30'0 0.0
2018-Feb-14 18:55N 48°45' W 122°30'0 0.0
2018-Feb-14 18:25N 48°45' W 122°30'0 0.0
2018-Feb-14 17:49N 48°45' W 122°30'0 0.0
2018-Feb-14 17:25N 48°45' W 122°30'0 0.0
2018-Feb-14 16:52N 48°45' W 122°30'0 0.0
2018-Feb-14 16:22N 48°45' W 122°30'0 0.0
2018-Feb-14 15:58N 48°45' W 122°30'0 0.0
2018-Feb-14 15:28N 48°45' W 122°30'0 0.0
2018-Feb-14 14:55N 48°45' W 122°30'0 0.0
2018-Feb-14 14:13N 48°45' W 122°30'0 0.0
2018-Feb-14 13:52N 48°45' W 122°30'0 0.0
2018-Feb-14 13:25N 48°45' W 122°30'0 0.0
2018-Feb-14 12:58N 48°45' W 122°30'0 0.0
2018-Feb-14 12:25N 48°45' W 122°30'0 0.0
2018-Feb-14 11:55N 48°45' W 122°30'0 0.0
2018-Feb-14 11:19N 48°45' W 122°30'0 0.0
2018-Feb-14 10:55N 48°45' W 122°30'0 0.0
2018-Feb-14 10:13N 48°45' W 122°30'0 0.0
2018-Feb-14 09:49N 48°45' W 122°30'0 0.0
2018-Feb-14 09:19N 48°45' W 122°30'0 0.0
2018-Feb-14 08:55N 48°45' W 122°30'0 0.0
2018-Feb-14 08:25N 48°45' W 122°30'0 0.0
2018-Feb-14 07:55N 48°45' W 122°30'0 0.0
2018-Feb-14 07:25N 48°45' W 122°30'0 0.0
2018-Feb-14 06:49N 48°45' W 122°30'0 0.0
2018-Feb-14 06:13N 48°45' W 122°30'0 0.0
2018-Feb-14 03:25N 48°45' W 122°30'0 0.0
2018-Feb-13 21:13N 48°45' W 122°30'0 0.0
2018-Feb-13 20:49N 48°45' W 122°30'0 0.0
2018-Feb-13 18:58N 48°45' W 122°30'0 0.0
2018-Feb-13 18:19N 48°45' W 122°30'0 0.0
2018-Feb-13 17:55N 48°45' W 122°30'0 0.0
2018-Feb-13 17:28N 48°45' W 122°30'0 0.0
2018-Feb-13 16:49N 48°45' W 122°30'0 0.0
2018-Feb-13 15:19N 48°45' W 122°30'0 0.0
2018-Feb-13 14:55N 48°45' W 122°30'0 0.0
2018-Feb-13 14:10N 48°45' W 122°30'0 0.0
2018-Feb-13 13:55N 48°45' W 122°30'0 0.0
2018-Feb-13 13:25N 48°45' W 122°30'0 0.0
2018-Feb-13 12:58N 48°45' W 122°30'0 0.0
2018-Feb-13 12:28N 48°45' W 122°30'0 0.0
2018-Feb-13 11:55N 48°45' W 122°30'0 0.0
2018-Feb-13 11:25N 48°45' W 122°30'0 0.0
2018-Feb-13 10:52N 48°45' W 122°30'0 0.0
2018-Feb-13 10:28N 48°45' W 122°30'0 0.0
2018-Feb-13 09:43N 48°45' W 122°30'0 0.0
2018-Feb-13 09:25N 48°45' W 122°30'0 0.0
2018-Feb-13 08:55N 48°45' W 122°30'0 0.0
2018-Feb-13 08:19N 48°45' W 122°30'0 0.0
2018-Feb-13 07:52N 48°45' W 122°30'0 0.0
2018-Feb-13 07:19N 48°45' W 122°30'0 0.0
2018-Feb-13 06:55N 48°45' W 122°30'0 0.0
2018-Feb-13 06:25N 48°45' W 122°30'0 0.0
2018-Feb-13 05:49N 48°45' W 122°30'0 0.0
2018-Feb-13 05:19N 48°45' W 122°30'0 0.0
2018-Feb-13 04:55N 48°45' W 122°30'0 0.0
2018-Feb-13 04:25N 48°45' W 122°30'0 0.0
2018-Feb-13 03:55N 48°45' W 122°30'0 0.0
2018-Feb-13 03:25N 48°45' W 122°30'0 0.0
2018-Feb-13 02:49N 48°45' W 122°30'0 0.0
2018-Feb-13 02:25N 48°45' W 122°30'0 0.0
2018-Feb-12 07:15N 48°45' W 122°30'7 6.7
2018-Feb-12 06:14N 48°39' W 122°34'2 7.1
2018-Feb-12 05:54N 48°37' W 122°37'3 7.2
2018-Feb-12 05:30N 48°35' W 122°40'3 6.9
2018-Feb-12 05:00N 48°32' W 122°41'3 6.7
2018-Feb-12 04:30N 48°29' W 122°44'3 5.8
2018-Feb-12 03:59N 48°26' W 122°45'3 6.1
2018-Feb-12 03:28N 48°24' W 122°48'58 6.8
2018-Feb-11 18:52N 48°18' W 124°16'3 7.7
2018-Feb-11 18:29N 48°19' W 124°20'4 7.6
2018-Feb-11 17:59N 48°20' W 124°25'4 7.5
2018-Feb-11 17:30N 48°22' W 124°30'4 7.5
2018-Feb-11 17:00N 48°24' W 124°35'4 7.1
2018-Feb-11 16:30N 48°24' W 124°40'4 7.7
2018-Feb-11 15:56N 48°23' W 124°46'  
2018-Feb-08 00:18N 48°22' W 124°37'0 0.6
2018-Feb-08 00:00N 48°22' W 124°37'0 0.0
2018-Feb-07 23:30N 48°22' W 124°37'0 0.0
2018-Feb-07 23:00N 48°22' W 124°37'0 0.0
2018-Feb-07 22:30N 48°22' W 124°37'0 0.0
2018-Feb-07 22:00N 48°22' W 124°37'0 0.0
2018-Feb-07 21:30N 48°22' W 124°37'83 6.9
2018-Feb-07 09:30N 48°38' W 122°34'7 8.5
2018-Feb-07 08:39N 48°45' W 122°31'0 1.3
2018-Feb-07 08:28N 48°45' W 122°30'0 0.0
2018-Feb-07 07:58N 48°45' W 122°30'0 0.0
2018-Feb-07 07:28N 48°45' W 122°30'0 0.0
2018-Feb-07 06:58N 48°45' W 122°30'0 0.0
2018-Feb-07 05:10N 48°45' W 122°30'0 0.0
2018-Feb-07 04:52N 48°45' W 122°30'0 0.0
2018-Feb-07 04:28N 48°45' W 122°30'0 0.0
2018-Feb-07 02:10N 48°45' W 122°30'0 0.0
2018-Feb-07 01:58N 48°45' W 122°30'  

Dump ship's entire track history